createdAt,value
2018-06-04T00:02:35.177Z,49.23
2018-06-04T00:17:35.489Z,49.22
2018-06-04T00:32:34.988Z,49.27
2018-06-04T00:47:36.021Z,49.44
2018-06-04T01:02:34.922Z,49.46
2018-06-04T01:17:38.593Z,49.63
2018-06-04T01:32:38.499Z,49.70
2018-06-04T01:47:38.566Z,49.90
2018-06-04T02:02:35.750Z,50.07
2018-06-04T02:17:37.475Z,50.29
2018-06-04T02:32:34.754Z,50.44
2018-06-04T02:47:37.807Z,50.65
2018-06-04T03:02:35.351Z,50.67
2018-06-04T03:17:35.955Z,50.69
2018-06-04T03:32:38.166Z,50.65
2018-06-04T03:47:35.362Z,51.37
2018-06-04T04:02:34.448Z,53.19
2018-06-04T04:17:35.649Z,53.67
2018-06-04T04:32:41.895Z,52.46
2018-06-04T04:47:35.766Z,49.89
2018-06-04T05:02:35.493Z,47.52
2018-06-04T05:17:37.583Z,45.60
2018-06-04T05:32:34.807Z,45.04
2018-06-04T05:47:37.591Z,45.99
2018-06-04T06:02:34.871Z,46.12
2018-06-04T06:17:36.342Z,45.88
2018-06-04T06:32:35.310Z,44.92
2018-06-04T06:47:34.519Z,41.59
2018-06-04T07:02:35.225Z,38.23
2018-06-04T07:17:40.434Z,35.87
2018-06-04T07:32:49.762Z,34.09
2018-06-04T07:47:37.305Z,32.49
2018-06-04T08:02:34.644Z,31.98
2018-06-04T08:17:37.994Z,31.22
2018-06-04T08:32:35.666Z,30.80
2018-06-04T08:47:37.807Z,33.17
2018-06-04T09:02:35.526Z,31.72
2018-06-04T09:17:35.012Z,30.24
2018-06-04T09:32:35.621Z,29.55
2018-06-04T09:47:38.162Z,28.47
2018-06-04T10:02:35.710Z,28.97
2018-06-04T10:17:39.883Z,29.23
2018-06-04T10:32:34.972Z,30.67
2018-06-04T10:47:35.372Z,32.26
2018-06-04T11:02:36.692Z,33.23
2018-06-04T11:17:37.482Z,33.83
2018-06-04T11:47:37.261Z,33.78
2018-06-04T12:02:35.107Z,33.04
2018-06-04T12:17:35.577Z,33.91
2018-06-04T12:32:38.037Z,34.52
2018-06-04T13:02:38.736Z,34.96
2018-06-04T13:32:37.768Z,34.12
2018-06-04T13:47:42.292Z,34.41
2018-06-04T14:02:37.160Z,34.66
2018-06-04T14:17:36.832Z,37.70
2018-06-04T14:32:36.925Z,38.85
2018-06-04T15:17:40.778Z,40.78
2018-06-04T15:32:37.126Z,41.10
2018-06-04T15:47:34.881Z,44.83
2018-06-04T16:02:34.516Z,44.24
2018-06-04T16:17:34.530Z,42.41
2018-06-04T16:32:35.454Z,40.20
2018-06-04T16:47:34.971Z,40.97
2018-06-04T17:02:34.921Z,42.06
2018-06-04T17:17:34.968Z,42.92
2018-06-04T17:32:34.528Z,45.40
2018-06-04T17:47:34.719Z,44.04
2018-06-04T18:02:35.306Z,43.95
2018-06-04T18:17:35.360Z,43.40
2018-06-04T18:32:35.252Z,43.46
2018-06-04T18:47:35.013Z,42.04
2018-06-04T19:02:34.840Z,41.80
2018-06-04T19:17:34.532Z,41.91
2018-06-04T19:32:34.213Z,45.32
2018-06-04T19:47:35.226Z,47.68
2018-06-04T20:02:35.131Z,48.37
2018-06-04T20:17:34.889Z,50.01
2018-06-04T20:32:34.311Z,49.81
2018-06-04T20:47:34.389Z,49.17
2018-06-04T21:02:34.451Z,49.53
2018-06-04T21:17:34.260Z,49.59
2018-06-04T21:32:34.217Z,49.50
2018-06-04T21:47:34.846Z,49.35
2018-06-04T22:02:34.604Z,49.22
2018-06-04T22:17:34.654Z,48.61
2018-06-04T22:32:34.200Z,48.37
2018-06-04T22:47:34.219Z,48.80
2018-06-04T23:02:35.214Z,48.31
2018-06-04T23:17:35.038Z,48.33
2018-06-04T23:32:34.571Z,48.73
2018-06-04T23:47:34.213Z,48.42
